sensor_id;sensor_type;location;lat;lon;timestamp;P1;durP1;ratioP1;P2;durP2;ratioP2
10529;SDS011;5313;48.834;9.228;2023-06-10T00:01:45;8.03;;;7.23;;
10529;SDS011;5313;48.834;9.228;2023-06-10T00:04:16;9.77;;;8.67;;
10529;SDS011;5313;48.834;9.228;2023-06-10T00:06:43;12.80;;;10.93;;
10529;SDS011;5313;48.834;9.228;2023-06-10T00:09:09;12.07;;;10.47;;
10529;SDS011;5313;48.834;9.228;2023-06-10T00:11:38;15.23;;;9.30;;
10529;SDS011;5313;48.834;9.228;2023-06-10T00:14:04;9.67;;;8.27;;
10529;SDS011;5313;48.834;9.228;2023-06-10T00:16:30;9.60;;;8.60;;
10529;SDS011;5313;48.834;9.228;2023-06-10T00:18:55;9.37;;;8.37;;
10529;SDS011;5313;48.834;9.228;2023-06-10T00:21:25;12.63;;;9.67;;
10529;SDS011;5313;48.834;9.228;2023-06-10T00:23:51;11.73;;;9.30;;
10529;SDS011;5313;48.834;9.228;2023-06-10T00:26:17;13.77;;;8.60;;
10529;SDS011;5313;48.834;9.228;2023-06-10T00:28:42;10.43;;;9.40;;
10529;SDS011;5313;48.834;9.228;2023-06-10T00:31:10;10.10;;;9.00;;
10529;SDS011;5313;48.834;9.228;2023-06-10T00:33:35;8.00;;;7.20;;
10529;SDS011;5313;48.834;9.228;2023-06-10T00:36:01;10.00;;;8.53;;
10529;SDS011;5313;48.834;9.228;2023-06-10T00:38:26;10.20;;;9.10;;
10529;SDS011;5313;48.834;9.228;2023-06-10T00:40:52;10.87;;;9.47;;
10529;SDS011;5313;48.834;9.228;2023-06-10T00:43:17;11.07;;;9.57;;
10529;SDS011;5313;48.834;9.228;2023-06-10T00:45:43;11.87;;;10.00;;
10529;SDS011;5313;48.834;9.228;2023-06-10T00:48:08;11.17;;;9.67;;
10529;SDS011;5313;48.834;9.228;2023-06-10T00:50:35;11.27;;;9.60;;
10529;SDS011;5313;48.834;9.228;2023-06-10T00:53:04;11.23;;;9.60;;
10529;SDS011;5313;48.834;9.228;2023-06-10T00:55:29;9.57;;;8.57;;
10529;SDS011;5313;48.834;9.228;2023-06-10T00:57:57;8.27;;;7.37;;
10529;SDS011;5313;48.834;9.228;2023-06-10T01:00:23;10.00;;;8.20;;
10529;SDS011;5313;48.834;9.228;2023-06-10T01:02:49;9.47;;;8.20;;
10529;SDS011;5313;48.834;9.228;2023-06-10T01:05:17;8.37;;;7.50;;
10529;SDS011;5313;48.834;9.228;2023-06-10T01:07:47;9.57;;;8.57;;
10529;SDS011;5313;48.834;9.228;2023-06-10T01:10:32;9.47;;;8.20;;
10529;SDS011;5313;48.834;9.228;2023-06-10T01:13:27;9.00;;;8.10;;
10529;SDS011;5313;48.834;9.228;2023-06-10T01:15:56;11.57;;;8.67;;
10529;SDS011;5313;48.834;9.228;2023-06-10T01:18:23;12.17;;;8.73;;
10529;SDS011;5313;48.834;9.228;2023-06-10T01:20:55;8.27;;;7.47;;
10529;SDS011;5313;48.834;9.228;2023-06-10T01:23:21;9.17;;;7.77;;
10529;SDS011;5313;48.834;9.228;2023-06-10T01:25:58;10.53;;;8.30;;
10529;SDS011;5313;48.834;9.228;2023-06-10T01:28:29;10.20;;;8.63;;
10529;SDS011;5313;48.834;9.228;2023-06-10T01:31:07;10.03;;;8.10;;
10529;SDS011;5313;48.834;9.228;2023-06-10T01:33:43;9.87;;;8.87;;
10529;SDS011;5313;48.834;9.228;2023-06-10T01:36:12;9.90;;;8.67;;
10529;SDS011;5313;48.834;9.228;2023-06-10T01:38:42;9.20;;;8.30;;
10529;SDS011;5313;48.834;9.228;2023-06-10T01:41:09;10.00;;;9.00;;
10529;SDS011;5313;48.834;9.228;2023-06-10T01:43:39;8.83;;;8.03;;
10529;SDS011;5313;48.834;9.228;2023-06-10T01:46:05;9.23;;;8.23;;
10529;SDS011;5313;48.834;9.228;2023-06-10T01:48:32;9.10;;;8.20;;
10529;SDS011;5313;48.834;9.228;2023-06-10T01:50:57;10.07;;;8.33;;
10529;SDS011;5313;48.834;9.228;2023-06-10T01:53:23;9.80;;;8.80;;
10529;SDS011;5313;48.834;9.228;2023-06-10T01:55:49;9.43;;;8.37;;
10529;SDS011;5313;48.834;9.228;2023-06-10T01:58:14;10.87;;;8.97;;
10529;SDS011;5313;48.834;9.228;2023-06-10T02:00:40;10.63;;;9.10;;
10529;SDS011;5313;48.834;9.228;2023-06-10T02:03:05;10.37;;;9.37;;
10529;SDS011;5313;48.834;9.228;2023-06-10T02:05:31;10.30;;;9.30;;
10529;SDS011;5313;48.834;9.228;2023-06-10T02:07:57;9.77;;;8.77;;
10529;SDS011;5313;48.834;9.228;2023-06-10T02:10:22;10.60;;;9.30;;
10529;SDS011;5313;48.834;9.228;2023-06-10T02:12:48;10.40;;;9.40;;
10529;SDS011;5313;48.834;9.228;2023-06-10T02:15:13;12.50;;;10.00;;
10529;SDS011;5313;48.834;9.228;2023-06-10T02:17:39;10.00;;;8.60;;
10529;SDS011;5313;48.834;9.228;2023-06-10T02:20:05;10.57;;;9.47;;
10529;SDS011;5313;48.834;9.228;2023-06-10T02:22:32;9.20;;;8.30;;
10529;SDS011;5313;48.834;9.228;2023-06-10T02:24:58;9.70;;;8.70;;
10529;SDS011;5313;48.834;9.228;2023-06-10T02:27:24;10.07;;;9.07;;
10529;SDS011;5313;48.834;9.228;2023-06-10T02:29:49;9.23;;;8.10;;
10529;SDS011;5313;48.834;9.228;2023-06-10T02:32:15;9.40;;;8.17;;
10529;SDS011;5313;48.834;9.228;2023-06-10T02:34:41;8.83;;;8.03;;
10529;SDS011;5313;48.834;9.228;2023-06-10T02:37:07;9.57;;;8.37;;
10529;SDS011;5313;48.834;9.228;2023-06-10T02:39:33;9.53;;;8.53;;
10529;SDS011;5313;48.834;9.228;2023-06-10T02:41:58;9.40;;;8.50;;
10529;SDS011;5313;48.834;9.228;2023-06-10T02:44:24;11.50;;;8.67;;
10529;SDS011;5313;48.834;9.228;2023-06-10T02:46:50;9.87;;;8.70;;
10529;SDS011;5313;48.834;9.228;2023-06-10T02:49:15;10.40;;;8.37;;
10529;SDS011;5313;48.834;9.228;2023-06-10T02:51:41;9.60;;;8.70;;
10529;SDS011;5313;48.834;9.228;2023-06-10T02:54:06;9.77;;;8.80;;
10529;SDS011;5313;48.834;9.228;2023-06-10T02:56:32;9.93;;;7.47;;
10529;SDS011;5313;48.834;9.228;2023-06-10T02:58:58;8.63;;;7.80;;
10529;SDS011;5313;48.834;9.228;2023-06-10T03:01:23;8.97;;;8.13;;
10529;SDS011;5313;48.834;9.228;2023-06-10T03:03:49;10.30;;;9.10;;
10529;SDS011;5313;48.834;9.228;2023-06-10T03:06:15;9.27;;;8.37;;
10529;SDS011;5313;48.834;9.228;2023-06-10T03:08:41;10.33;;;8.77;;
10529;SDS011;5313;48.834;9.228;2023-06-10T03:11:07;10.63;;;8.80;;
10529;SDS011;5313;48.834;9.228;2023-06-10T03:13:32;11.37;;;9.00;;
10529;SDS011;5313;48.834;9.228;2023-06-10T03:15:58;9.93;;;8.93;;
10529;SDS011;5313;48.834;9.228;2023-06-10T03:18:25;9.50;;;8.60;;
10529;SDS011;5313;48.834;9.228;2023-06-10T03:20:52;8.23;;;7.43;;
10529;SDS011;5313;48.834;9.228;2023-06-10T03:23:17;8.17;;;7.37;;
10529;SDS011;5313;48.834;9.228;2023-06-10T03:25:43;8.60;;;7.80;;
10529;SDS011;5313;48.834;9.228;2023-06-10T03:28:09;9.90;;;8.00;;
10529;SDS011;5313;48.834;9.228;2023-06-10T03:30:35;9.67;;;8.73;;
10529;SDS011;5313;48.834;9.228;2023-06-10T03:33:00;8.50;;;7.57;;
10529;SDS011;5313;48.834;9.228;2023-06-10T03:35:26;8.57;;;7.67;;
10529;SDS011;5313;48.834;9.228;2023-06-10T03:37:51;8.43;;;7.63;;
10529;SDS011;5313;48.834;9.228;2023-06-10T03:40:17;7.63;;;6.83;;
10529;SDS011;5313;48.834;9.228;2023-06-10T03:42:43;9.03;;;8.00;;
10529;SDS011;5313;48.834;9.228;2023-06-10T03:45:11;9.53;;;7.53;;
10529;SDS011;5313;48.834;9.228;2023-06-10T03:47:37;8.13;;;7.33;;
10529;SDS011;5313;48.834;9.228;2023-06-10T03:50:05;8.40;;;7.50;;
10529;SDS011;5313;48.834;9.228;2023-06-10T03:52:32;11.33;;;8.20;;
10529;SDS011;5313;48.834;9.228;2023-06-10T03:54:58;8.87;;;7.97;;
10529;SDS011;5313;48.834;9.228;2023-06-10T03:57:24;9.20;;;8.20;;
10529;SDS011;5313;48.834;9.228;2023-06-10T03:59:50;11.43;;;8.80;;
10529;SDS011;5313;48.834;9.228;2023-06-10T04:02:16;11.43;;;8.70;;
10529;SDS011;5313;48.834;9.228;2023-06-10T04:04:41;11.87;;;9.07;;
10529;SDS011;5313;48.834;9.228;2023-06-10T04:07:07;9.83;;;8.83;;
10529;SDS011;5313;48.834;9.228;2023-06-10T04:09:33;13.23;;;11.30;;
10529;SDS011;5313;48.834;9.228;2023-06-10T04:11:59;11.23;;;10.10;;
10529;SDS011;5313;48.834;9.228;2023-06-10T04:14:25;11.00;;;9.90;;
10529;SDS011;5313;48.834;9.228;2023-06-10T04:16:50;10.47;;;8.33;;
10529;SDS011;5313;48.834;9.228;2023-06-10T04:19:16;8.70;;;7.77;;
10529;SDS011;5313;48.834;9.228;2023-06-10T04:21:42;10.43;;;8.47;;
10529;SDS011;5313;48.834;9.228;2023-06-10T04:24:07;7.20;;;6.50;;
10529;SDS011;5313;48.834;9.228;2023-06-10T04:26:34;7.87;;;6.40;;
10529;SDS011;5313;48.834;9.228;2023-06-10T04:29:01;8.47;;;6.70;;
10529;SDS011;5313;48.834;9.228;2023-06-10T04:31:26;10.30;;;7.67;;
10529;SDS011;5313;48.834;9.228;2023-06-10T04:33:52;8.30;;;7.30;;
10529;SDS011;5313;48.834;9.228;2023-06-10T04:36:18;9.47;;;7.00;;
10529;SDS011;5313;48.834;9.228;2023-06-10T04:38:44;8.50;;;7.10;;
10529;SDS011;5313;48.834;9.228;2023-06-10T04:41:09;7.77;;;5.93;;
10529;SDS011;5313;48.834;9.228;2023-06-10T04:43:35;8.63;;;6.50;;
10529;SDS011;5313;48.834;9.228;2023-06-10T04:46:00;8.00;;;6.60;;
10529;SDS011;5313;48.834;9.228;2023-06-10T04:48:26;7.50;;;6.70;;
10529;SDS011;5313;48.834;9.228;2023-06-10T04:50:52;7.17;;;6.43;;
10529;SDS011;5313;48.834;9.228;2023-06-10T04:53:17;7.40;;;6.67;;
10529;SDS011;5313;48.834;9.228;2023-06-10T04:55:43;8.40;;;6.80;;
10529;SDS011;5313;48.834;9.228;2023-06-10T04:58:09;8.00;;;7.07;;
10529;SDS011;5313;48.834;9.228;2023-06-10T05:00:34;7.90;;;6.90;;
10529;SDS011;5313;48.834;9.228;2023-06-10T05:03:00;8.93;;;6.67;;
10529;SDS011;5313;48.834;9.228;2023-06-10T05:05:25;7.77;;;6.67;;
10529;SDS011;5313;48.834;9.228;2023-06-10T05:07:51;6.97;;;6.33;;
10529;SDS011;5313;48.834;9.228;2023-06-10T05:10:16;7.00;;;6.30;;
10529;SDS011;5313;48.834;9.228;2023-06-10T05:12:42;7.70;;;6.53;;
10529;SDS011;5313;48.834;9.228;2023-06-10T05:15:07;7.97;;;6.33;;
10529;SDS011;5313;48.834;9.228;2023-06-10T05:17:33;7.67;;;6.47;;
10529;SDS011;5313;48.834;9.228;2023-06-10T05:20:02;6.50;;;5.87;;
10529;SDS011;5313;48.834;9.228;2023-06-10T05:22:28;9.90;;;6.17;;
10529;SDS011;5313;48.834;9.228;2023-06-10T05:24:54;6.97;;;6.27;;
10529;SDS011;5313;48.834;9.228;2023-06-10T05:27:19;7.03;;;6.03;;
10529;SDS011;5313;48.834;9.228;2023-06-10T05:29:46;6.27;;;5.67;;
10529;SDS011;5313;48.834;9.228;2023-06-10T05:32:11;7.97;;;6.43;;
10529;SDS011;5313;48.834;9.228;2023-06-10T05:34:37;8.40;;;6.20;;
10529;SDS011;5313;48.834;9.228;2023-06-10T05:37:03;7.83;;;6.47;;
10529;SDS011;5313;48.834;9.228;2023-06-10T05:39:29;7.43;;;6.07;;
10529;SDS011;5313;48.834;9.228;2023-06-10T05:41:55;6.63;;;6.03;;
10529;SDS011;5313;48.834;9.228;2023-06-10T05:44:21;6.20;;;5.60;;
10529;SDS011;5313;48.834;9.228;2023-06-10T05:46:46;6.23;;;5.63;;
10529;SDS011;5313;48.834;9.228;2023-06-10T05:49:12;7.37;;;5.80;;
10529;SDS011;5313;48.834;9.228;2023-06-10T05:51:37;6.23;;;5.63;;
10529;SDS011;5313;48.834;9.228;2023-06-10T05:54:03;8.47;;;6.33;;
10529;SDS011;5313;48.834;9.228;2023-06-10T05:56:29;7.13;;;6.43;;
10529;SDS011;5313;48.834;9.228;2023-06-10T05:58:54;6.90;;;5.93;;
10529;SDS011;5313;48.834;9.228;2023-06-10T06:01:20;6.30;;;5.70;;
10529;SDS011;5313;48.834;9.228;2023-06-10T06:03:46;6.50;;;5.90;;
10529;SDS011;5313;48.834;9.228;2023-06-10T06:06:11;6.30;;;5.60;;
10529;SDS011;5313;48.834;9.228;2023-06-10T06:08:37;6.20;;;5.60;;
10529;SDS011;5313;48.834;9.228;2023-06-10T06:11:02;6.70;;;6.00;;
10529;SDS011;5313;48.834;9.228;2023-06-10T06:13:28;6.47;;;5.80;;
10529;SDS011;5313;48.834;9.228;2023-06-10T06:15:54;6.47;;;5.80;;
10529;SDS011;5313;48.834;9.228;2023-06-10T06:18:20;6.30;;;5.70;;
10529;SDS011;5313;48.834;9.228;2023-06-10T06:20:45;6.33;;;5.73;;
10529;SDS011;5313;48.834;9.228;2023-06-10T06:23:11;5.63;;;5.13;;
10529;SDS011;5313;48.834;9.228;2023-06-10T06:25:38;5.93;;;5.33;;
10529;SDS011;5313;48.834;9.228;2023-06-10T06:28:05;6.20;;;5.60;;
10529;SDS011;5313;48.834;9.228;2023-06-10T06:30:32;5.53;;;5.03;;
10529;SDS011;5313;48.834;9.228;2023-06-10T06:32:57;5.77;;;5.23;;
10529;SDS011;5313;48.834;9.228;2023-06-10T06:35:23;5.90;;;5.40;;
10529;SDS011;5313;48.834;9.228;2023-06-10T06:37:48;5.07;;;4.67;;
10529;SDS011;5313;48.834;9.228;2023-06-10T06:40:14;7.00;;;5.63;;
10529;SDS011;5313;48.834;9.228;2023-06-10T06:42:39;6.53;;;5.43;;
10529;SDS011;5313;48.834;9.228;2023-06-10T06:45:05;5.63;;;5.13;;
10529;SDS011;5313;48.834;9.228;2023-06-10T06:47:31;5.87;;;5.27;;
10529;SDS011;5313;48.834;9.228;2023-06-10T06:49:56;5.93;;;5.27;;
10529;SDS011;5313;48.834;9.228;2023-06-10T06:52:22;5.73;;;5.13;;
10529;SDS011;5313;48.834;9.228;2023-06-10T06:54:47;6.13;;;5.53;;
10529;SDS011;5313;48.834;9.228;2023-06-10T06:57:13;5.73;;;5.10;;
10529;SDS011;5313;48.834;9.228;2023-06-10T06:59:38;5.87;;;5.33;;
10529;SDS011;5313;48.834;9.228;2023-06-10T07:02:04;5.50;;;5.00;;
10529;SDS011;5313;48.834;9.228;2023-06-10T07:04:30;6.27;;;5.50;;
10529;SDS011;5313;48.834;9.228;2023-06-10T07:06:56;8.00;;;4.90;;
10529;SDS011;5313;48.834;9.228;2023-06-10T07:09:21;5.50;;;4.83;;
10529;SDS011;5313;48.834;9.228;2023-06-10T07:11:47;5.60;;;5.10;;
10529;SDS011;5313;48.834;9.228;2023-06-10T07:14:12;7.57;;;5.20;;
10529;SDS011;5313;48.834;9.228;2023-06-10T07:16:38;5.53;;;4.80;;
10529;SDS011;5313;48.834;9.228;2023-06-10T07:19:03;5.57;;;5.03;;
10529;SDS011;5313;48.834;9.228;2023-06-10T07:21:29;8.60;;;7.70;;
10529;SDS011;5313;48.834;9.228;2023-06-10T07:23:55;5.37;;;4.83;;
10529;SDS011;5313;48.834;9.228;2023-06-10T07:26:24;5.90;;;5.30;;
10529;SDS011;5313;48.834;9.228;2023-06-10T07:28:50;5.47;;;4.97;;
10529;SDS011;5313;48.834;9.228;2023-06-10T07:31:16;4.93;;;4.43;;
10529;SDS011;5313;48.834;9.228;2023-06-10T07:33:41;5.17;;;4.67;;
10529;SDS011;5313;48.834;9.228;2023-06-10T07:36:08;5.40;;;4.70;;
10529;SDS011;5313;48.834;9.228;2023-06-10T07:38:34;5.27;;;4.77;;
10529;SDS011;5313;48.834;9.228;2023-06-10T07:41:00;6.40;;;3.90;;
10529;SDS011;5313;48.834;9.228;2023-06-10T07:43:25;5.37;;;4.83;;
10529;SDS011;5313;48.834;9.228;2023-06-10T07:45:51;6.23;;;4.83;;
10529;SDS011;5313;48.834;9.228;2023-06-10T07:48:16;6.87;;;5.40;;
10529;SDS011;5313;48.834;9.228;2023-06-10T07:50:42;5.40;;;4.73;;
10529;SDS011;5313;48.834;9.228;2023-06-10T07:53:08;7.03;;;5.00;;
10529;SDS011;5313;48.834;9.228;2023-06-10T07:55:33;5.50;;;4.83;;
10529;SDS011;5313;48.834;9.228;2023-06-10T07:57:59;5.60;;;5.10;;
10529;SDS011;5313;48.834;9.228;2023-06-10T08:00:24;5.27;;;4.73;;
10529;SDS011;5313;48.834;9.228;2023-06-10T08:02:50;7.50;;;5.10;;
10529;SDS011;5313;48.834;9.228;2023-06-10T08:05:16;6.27;;;4.93;;
10529;SDS011;5313;48.834;9.228;2023-06-10T08:07:42;4.80;;;4.40;;
10529;SDS011;5313;48.834;9.228;2023-06-10T08:10:08;5.43;;;4.93;;
10529;SDS011;5313;48.834;9.228;2023-06-10T08:12:34;5.10;;;4.60;;
10529;SDS011;5313;48.834;9.228;2023-06-10T08:15:00;5.77;;;5.17;;
10529;SDS011;5313;48.834;9.228;2023-06-10T08:17:28;5.30;;;4.63;;
10529;SDS011;5313;48.834;9.228;2023-06-10T08:19:54;5.60;;;5.07;;
10529;SDS011;5313;48.834;9.228;2023-06-10T08:22:20;5.70;;;5.20;;
10529;SDS011;5313;48.834;9.228;2023-06-10T08:24:46;5.63;;;5.03;;
10529;SDS011;5313;48.834;9.228;2023-06-10T08:27:11;5.77;;;5.27;;
10529;SDS011;5313;48.834;9.228;2023-06-10T08:29:37;5.77;;;5.00;;
10529;SDS011;5313;48.834;9.228;2023-06-10T08:32:02;5.17;;;4.77;;
10529;SDS011;5313;48.834;9.228;2023-06-10T08:34:28;6.00;;;5.07;;
10529;SDS011;5313;48.834;9.228;2023-06-10T08:36:54;5.83;;;4.87;;
10529;SDS011;5313;48.834;9.228;2023-06-10T08:39:20;5.50;;;4.60;;
10529;SDS011;5313;48.834;9.228;2023-06-10T08:44:42;5.23;;;4.73;;
10529;SDS011;5313;48.834;9.228;2023-06-10T08:47:13;5.67;;;5.03;;
10529;SDS011;5313;48.834;9.228;2023-06-10T08:49:44;5.40;;;4.90;;
10529;SDS011;5313;48.834;9.228;2023-06-10T08:52:20;6.13;;;5.60;;
10529;SDS011;5313;48.834;9.228;2023-06-10T08:54:49;6.17;;;4.97;;
10529;SDS011;5313;48.834;9.228;2023-06-10T08:57:20;5.17;;;4.67;;
10529;SDS011;5313;48.834;9.228;2023-06-10T08:59:46;5.17;;;4.67;;
10529;SDS011;5313;48.834;9.228;2023-06-10T09:02:12;4.83;;;4.43;;
10529;SDS011;5313;48.834;9.228;2023-06-10T09:04:40;5.10;;;4.60;;
10529;SDS011;5313;48.834;9.228;2023-06-10T09:07:08;6.10;;;4.50;;
10529;SDS011;5313;48.834;9.228;2023-06-10T09:09:34;4.90;;;4.50;;
10529;SDS011;5313;48.834;9.228;2023-06-10T09:12:00;5.47;;;4.80;;
10529;SDS011;5313;48.834;9.228;2023-06-10T09:14:26;4.93;;;4.53;;
10529;SDS011;5313;48.834;9.228;2023-06-10T09:16:52;5.40;;;4.10;;
10529;SDS011;5313;48.834;9.228;2023-06-10T09:19:21;5.23;;;4.17;;
10529;SDS011;5313;48.834;9.228;2023-06-10T09:21:48;4.73;;;4.23;;
10529;SDS011;5313;48.834;9.228;2023-06-10T09:24:13;5.30;;;4.37;;
10529;SDS011;5313;48.834;9.228;2023-06-10T09:26:39;6.90;;;4.67;;
10529;SDS011;5313;48.834;9.228;2023-06-10T09:29:05;5.00;;;4.43;;
10529;SDS011;5313;48.834;9.228;2023-06-10T09:31:34;4.83;;;4.13;;
10529;SDS011;5313;48.834;9.228;2023-06-10T09:34:13;4.50;;;4.10;;
10529;SDS011;5313;48.834;9.228;2023-06-10T09:36:40;4.37;;;3.97;;
10529;SDS011;5313;48.834;9.228;2023-06-10T09:39:16;4.70;;;4.30;;
10529;SDS011;5313;48.834;9.228;2023-06-10T09:41:42;4.77;;;4.37;;
10529;SDS011;5313;48.834;9.228;2023-06-10T09:44:12;4.33;;;3.90;;
10529;SDS011;5313;48.834;9.228;2023-06-10T09:46:39;5.53;;;4.17;;
10529;SDS011;5313;48.834;9.228;2023-06-10T09:49:06;4.97;;;4.47;;
10529;SDS011;5313;48.834;9.228;2023-06-10T09:51:31;5.43;;;4.20;;
10529;SDS011;5313;48.834;9.228;2023-06-10T09:53:57;4.60;;;4.20;;
10529;SDS011;5313;48.834;9.228;2023-06-10T09:56:37;3.93;;;3.60;;
10529;SDS011;5313;48.834;9.228;2023-06-10T09:59:05;4.33;;;3.93;;
10529;SDS011;5313;48.834;9.228;2023-06-10T10:01:31;4.40;;;4.00;;
10529;SDS011;5313;48.834;9.228;2023-06-10T10:03:58;4.55;;;4.15;;
10529;SDS011;5313;48.834;9.228;2023-06-10T10:06:24;6.72;;;4.18;;
10529;SDS011;5313;48.834;9.228;2023-06-10T10:08:51;4.22;;;3.85;;
10529;SDS011;5313;48.834;9.228;2023-06-10T10:11:17;4.60;;;4.20;;
10529;SDS011;5313;48.834;9.228;2023-06-10T10:13:46;4.30;;;3.90;;
10529;SDS011;5313;48.834;9.228;2023-06-10T10:16:17;4.60;;;4.20;;
10529;SDS011;5313;48.834;9.228;2023-06-10T10:18:52;4.90;;;4.10;;
10529;SDS011;5313;48.834;9.228;2023-06-10T10:21:24;5.80;;;4.33;;
10529;SDS011;5313;48.834;9.228;2023-06-10T10:24:03;5.57;;;5.07;;
10529;SDS011;5313;48.834;9.228;2023-06-10T10:26:34;5.27;;;4.77;;
10529;SDS011;5313;48.834;9.228;2023-06-10T10:29:05;4.80;;;4.30;;
10529;SDS011;5313;48.834;9.228;2023-06-10T10:31:39;4.85;;;4.35;;
10529;SDS011;5313;48.834;9.228;2023-06-10T10:34:12;5.72;;;4.43;;
10529;SDS011;5313;48.834;9.228;2023-06-10T10:36:40;5.00;;;4.22;;
10529;SDS011;5313;48.834;9.228;2023-06-10T10:39:06;4.57;;;4.18;;
10529;SDS011;5313;48.834;9.228;2023-06-10T10:41:32;4.25;;;3.85;;
10529;SDS011;5313;48.834;9.228;2023-06-10T10:43:58;4.75;;;4.35;;
10529;SDS011;5313;48.834;9.228;2023-06-10T10:46:25;5.30;;;4.10;;
10529;SDS011;5313;48.834;9.228;2023-06-10T10:48:53;4.43;;;4.03;;
10529;SDS011;5313;48.834;9.228;2023-06-10T10:51:22;5.37;;;4.00;;
10529;SDS011;5313;48.834;9.228;2023-06-10T10:56:39;4.75;;;4.28;;
10529;SDS011;5313;48.834;9.228;2023-06-10T10:59:25;4.95;;;4.07;;
10529;SDS011;5313;48.834;9.228;2023-06-10T11:02:07;4.60;;;4.10;;
10529;SDS011;5313;48.834;9.228;2023-06-10T11:04:33;4.63;;;4.10;;
10529;SDS011;5313;48.834;9.228;2023-06-10T11:07:05;5.35;;;4.25;;
10529;SDS011;5313;48.834;9.228;2023-06-10T11:09:31;4.00;;;3.70;;
10529;SDS011;5313;48.834;9.228;2023-06-10T11:11:57;4.47;;;4.07;;
10529;SDS011;5313;48.834;9.228;2023-06-10T11:14:26;6.00;;;4.25;;
10529;SDS011;5313;48.834;9.228;2023-06-10T11:16:58;4.65;;;4.15;;
10529;SDS011;5313;48.834;9.228;2023-06-10T11:19:37;4.68;;;4.28;;
10529;SDS011;5313;48.834;9.228;2023-06-10T11:22:05;4.35;;;3.72;;
10529;SDS011;5313;48.834;9.228;2023-06-10T11:24:32;3.85;;;3.55;;
10529;SDS011;5313;48.834;9.228;2023-06-10T11:27:17;4.53;;;3.80;;
10529;SDS011;5313;48.834;9.228;2023-06-10T11:29:54;4.20;;;3.80;;
10529;SDS011;5313;48.834;9.228;2023-06-10T11:32:26;4.65;;;4.15;;
10529;SDS011;5313;48.834;9.228;2023-06-10T11:34:55;4.32;;;3.97;;
10529;SDS011;5313;48.834;9.228;2023-06-10T11:37:21;5.15;;;3.70;;
10529;SDS011;5313;48.834;9.228;2023-06-10T11:39:47;4.93;;;3.85;;
10529;SDS011;5313;48.834;9.228;2023-06-10T11:42:16;4.05;;;3.75;;
10529;SDS011;5313;48.834;9.228;2023-06-10T11:44:49;5.30;;;3.80;;
10529;SDS011;5313;48.834;9.228;2023-06-10T11:47:16;3.85;;;3.42;;
10529;SDS011;5313;48.834;9.228;2023-06-10T11:49:42;3.63;;;3.28;;
10529;SDS011;5313;48.834;9.228;2023-06-10T11:52:08;5.05;;;3.75;;
10529;SDS011;5313;48.834;9.228;2023-06-10T11:54:33;4.68;;;3.80;;
10529;SDS011;5313;48.834;9.228;2023-06-10T11:56:59;3.75;;;3.17;;
10529;SDS011;5313;48.834;9.228;2023-06-10T11:59:28;4.85;;;3.40;;
10529;SDS011;5313;48.834;9.228;2023-06-10T12:01:55;4.05;;;3.65;;
10529;SDS011;5313;48.834;9.228;2023-06-10T12:04:21;4.13;;;3.55;;
10529;SDS011;5313;48.834;9.228;2023-06-10T12:06:50;3.50;;;3.20;;
10529;SDS011;5313;48.834;9.228;2023-06-10T12:09:20;4.75;;;3.42;;
10529;SDS011;5313;48.834;9.228;2023-06-10T12:11:50;3.22;;;2.92;;
10529;SDS011;5313;48.834;9.228;2023-06-10T12:14:47;3.70;;;3.40;;
10529;SDS011;5313;48.834;9.228;2023-06-10T12:19:52;3.50;;;3.20;;
10529;SDS011;5313;48.834;9.228;2023-06-10T12:22:18;5.00;;;3.50;;
10529;SDS011;5313;48.834;9.228;2023-06-10T12:24:57;3.67;;;3.38;;
10529;SDS011;5313;48.834;9.228;2023-06-10T12:27:27;4.88;;;3.50;;
10529;SDS011;5313;48.834;9.228;2023-06-10T12:29:54;4.20;;;3.78;;
10529;SDS011;5313;48.834;9.228;2023-06-10T12:32:21;4.22;;;3.20;;
10529;SDS011;5313;48.834;9.228;2023-06-10T12:35:01;4.25;;;3.60;;
10529;SDS011;5313;48.834;9.228;2023-06-10T12:37:29;3.92;;;3.42;;
10529;SDS011;5313;48.834;9.228;2023-06-10T12:39:54;4.80;;;3.67;;
10529;SDS011;5313;48.834;9.228;2023-06-10T12:42:22;4.25;;;3.85;;
10529;SDS011;5313;48.834;9.228;2023-06-10T12:44:52;4.30;;;3.28;;
10529;SDS011;5313;48.834;9.228;2023-06-10T12:47:18;4.30;;;3.72;;
10529;SDS011;5313;48.834;9.228;2023-06-10T12:49:44;4.35;;;3.45;;
10529;SDS011;5313;48.834;9.228;2023-06-10T12:52:09;4.03;;;3.40;;
10529;SDS011;5313;48.834;9.228;2023-06-10T12:54:35;4.10;;;3.70;;
10529;SDS011;5313;48.834;9.228;2023-06-10T12:57:01;6.32;;;3.58;;
10529;SDS011;5313;48.834;9.228;2023-06-10T12:59:27;3.85;;;3.45;;
10529;SDS011;5313;48.834;9.228;2023-06-10T13:01:53;3.55;;;3.25;;
10529;SDS011;5313;48.834;9.228;2023-06-10T13:04:19;3.88;;;2.90;;
10529;SDS011;5313;48.834;9.228;2023-06-10T13:06:46;4.18;;;3.42;;
10529;SDS011;5313;48.834;9.228;2023-06-10T13:09:12;3.78;;;3.10;;
10529;SDS011;5313;48.834;9.228;2023-06-10T13:11:38;3.92;;;3.53;;
10529;SDS011;5313;48.834;9.228;2023-06-10T13:14:05;3.25;;;2.95;;
10529;SDS011;5313;48.834;9.228;2023-06-10T13:16:31;3.70;;;3.17;;
10529;SDS011;5313;48.834;9.228;2023-06-10T13:18:57;3.80;;;3.10;;
10529;SDS011;5313;48.834;9.228;2023-06-10T13:21:23;3.17;;;2.90;;
10529;SDS011;5313;48.834;9.228;2023-06-10T13:23:49;4.05;;;2.78;;
10529;SDS011;5313;48.834;9.228;2023-06-10T13:26:16;3.25;;;2.95;;
10529;SDS011;5313;48.834;9.228;2023-06-10T13:28:42;3.33;;;2.95;;
10529;SDS011;5313;48.834;9.228;2023-06-10T13:31:08;5.18;;;3.80;;
10529;SDS011;5313;48.834;9.228;2023-06-10T13:33:34;5.72;;;3.40;;
10529;SDS011;5313;48.834;9.228;2023-06-10T13:35:59;5.03;;;4.53;;
10529;SDS011;5313;48.834;9.228;2023-06-10T13:38:25;4.63;;;4.22;;
10529;SDS011;5313;48.834;9.228;2023-06-10T13:40:50;5.25;;;3.78;;
10529;SDS011;5313;48.834;9.228;2023-06-10T13:43:16;4.20;;;3.67;;
10529;SDS011;5313;48.834;9.228;2023-06-10T13:45:41;3.15;;;2.85;;
10529;SDS011;5313;48.834;9.228;2023-06-10T13:48:07;3.70;;;3.00;;
10529;SDS011;5313;48.834;9.228;2023-06-10T13:50:33;3.65;;;2.75;;
10529;SDS011;5313;48.834;9.228;2023-06-10T13:52:59;3.40;;;3.10;;
10529;SDS011;5313;48.834;9.228;2023-06-10T13:55:24;5.07;;;3.30;;
10529;SDS011;5313;48.834;9.228;2023-06-10T13:57:50;4.47;;;3.05;;
10529;SDS011;5313;48.834;9.228;2023-06-10T14:00:16;3.30;;;3.08;;
10529;SDS011;5313;48.834;9.228;2023-06-10T14:02:42;3.95;;;3.10;;
10529;SDS011;5313;48.834;9.228;2023-06-10T14:05:10;2.95;;;2.72;;
10529;SDS011;5313;48.834;9.228;2023-06-10T14:07:36;3.92;;;2.92;;
10529;SDS011;5313;48.834;9.228;2023-06-10T14:10:02;4.38;;;3.10;;
10529;SDS011;5313;48.834;9.228;2023-06-10T14:12:28;3.15;;;2.85;;
10529;SDS011;5313;48.834;9.228;2023-06-10T14:14:54;3.85;;;3.13;;
10529;SDS011;5313;48.834;9.228;2023-06-10T14:17:19;3.92;;;3.30;;
10529;SDS011;5313;48.834;9.228;2023-06-10T14:19:45;3.25;;;2.95;;
10529;SDS011;5313;48.834;9.228;2023-06-10T14:22:10;4.32;;;3.33;;
10529;SDS011;5313;48.834;9.228;2023-06-10T14:24:36;3.13;;;2.92;;
10529;SDS011;5313;48.834;9.228;2023-06-10T14:27:02;3.35;;;3.15;;
10529;SDS011;5313;48.834;9.228;2023-06-10T14:29:28;3.45;;;3.13;;
10529;SDS011;5313;48.834;9.228;2023-06-10T14:31:54;3.78;;;3.47;;
10529;SDS011;5313;48.834;9.228;2023-06-10T14:34:20;5.43;;;3.78;;
10529;SDS011;5313;48.834;9.228;2023-06-10T14:36:46;4.85;;;3.38;;
10529;SDS011;5313;48.834;9.228;2023-06-10T14:39:12;3.65;;;3.35;;
10529;SDS011;5313;48.834;9.228;2023-06-10T14:41:37;4.65;;;2.97;;
10529;SDS011;5313;48.834;9.228;2023-06-10T14:44:03;3.80;;;3.50;;
10529;SDS011;5313;48.834;9.228;2023-06-10T14:46:28;3.75;;;3.40;;
10529;SDS011;5313;48.834;9.228;2023-06-10T14:48:54;3.88;;;3.47;;
10529;SDS011;5313;48.834;9.228;2023-06-10T14:51:19;3.70;;;3.40;;
10529;SDS011;5313;48.834;9.228;2023-06-10T14:53:45;8.05;;;3.78;;
10529;SDS011;5313;48.834;9.228;2023-06-10T14:56:11;4.28;;;3.88;;
10529;SDS011;5313;48.834;9.228;2023-06-10T14:58:37;3.92;;;3.47;;
10529;SDS011;5313;48.834;9.228;2023-06-10T15:01:03;4.10;;;3.75;;
10529;SDS011;5313;48.834;9.228;2023-06-10T15:03:28;3.92;;;3.58;;
10529;SDS011;5313;48.834;9.228;2023-06-10T15:05:54;3.97;;;3.67;;
10529;SDS011;5313;48.834;9.228;2023-06-10T15:08:19;4.03;;;3.63;;